Time;durP1;ratioP1;P1;durP2;ratioP2;P2;SDS_P1;SDS_P2;PMS_P1;PMS_P2;Temp;Humidity;BMP_temperature;BMP_pressure;BME280_temperature;BME280_humidity;BME280_pressure;Samples;Min_cycle;Max_cycle;Signal;HPM_P1;HPM_P2
2021/06/02 00:01:30;;;;;;;16.40;12.02;;;17.70;57.70;;;;;;5100399;28;20120;-81
2021/06/02 00:03:57;;;;;;;20.20;13.95;;;17.60;57.70;;;;;;5083038;28;20067;-82
2021/06/02 00:06:24;;;;;;;17.05;13.05;;;17.60;57.80;;;;;;5083990;28;20505;-81
2021/06/02 00:08:51;;;;;;;18.08;13.55;;;17.60;57.90;;;;;;5098900;28;20039;-82
2021/06/02 00:11:17;;;;;;;19.00;12.73;;;17.60;58.00;;;;;;5097370;28;20096;-81
2021/06/02 00:13:43;;;;;;;16.40;12.70;;;17.50;58.00;;;;;;5097529;28;20050;-81
2021/06/02 00:16:09;;;;;;;14.90;12.30;;;17.50;58.00;;;;;;5079749;28;20472;-82
2021/06/02 00:18:34;;;;;;;15.93;11.85;;;17.50;58.10;;;;;;5097145;28;20071;-81
2021/06/02 00:21:00;;;;;;;14.60;11.65;;;17.40;58.20;;;;;;5080629;27;20038;-80
2021/06/02 00:23:26;;;;;;;17.38;12.05;;;17.40;58.30;;;;;;5068802;27;20142;-79
2021/06/02 00:25:52;;;;;;;16.30;12.07;;;17.40;58.30;;;;;;5099809;28;20043;-81
2021/06/02 00:28:18;;;;;;;16.20;12.05;;;17.40;58.40;;;;;;5096879;28;20170;-80
2021/06/02 00:30:46;;;;;;;14.95;11.93;;;17.30;58.40;;;;;;5080839;28;20116;-79
2021/06/02 00:33:14;;;;;;;15.85;11.57;;;17.30;58.50;;;;;;5079629;28;20051;-80
2021/06/02 00:35:47;;;;;;;17.27;11.20;;;17.30;58.60;;;;;;5079582;28;20100;-81
2021/06/02 00:38:13;;;;;;;17.02;12.27;;;17.30;58.60;;;;;;5089891;27;20119;-80
2021/06/02 00:40:49;;;;;;;16.33;12.25;;;17.30;58.70;;;;;;5116854;27;20131;-81
2021/06/02 00:43:16;;;;;;;13.35;11.27;;;17.30;58.70;;;;;;5118708;27;20053;-81
2021/06/02 00:45:48;;;;;;;15.40;12.18;;;17.20;58.70;;;;;;5102716;27;20078;-80
2021/06/02 00:48:15;;;;;;;14.98;11.10;;;17.20;58.80;;;;;;5117142;27;20043;-80
2021/06/02 00:50:45;;;;;;;16.27;11.88;;;17.20;58.80;;;;;;5098107;27;20050;-81
2021/06/02 00:53:11;;;;;;;20.50;12.38;;;17.20;59.00;;;;;;5114209;27;20523;-80
2021/06/02 00:55:37;;;;;;;17.30;12.55;;;17.20;59.00;;;;;;5119510;27;20047;-80
2021/06/02 00:58:03;;;;;;;18.27;12.77;;;17.10;58.90;;;;;;5119298;27;20122;-82
2021/06/02 01:00:29;;;;;;;18.50;13.13;;;17.10;59.00;;;;;;5102730;27;20453;-80
2021/06/02 01:02:55;;;;;;;16.63;11.70;;;17.10;59.00;;;;;;5119507;27;20051;-80
2021/06/02 01:05:22;;;;;;;16.25;12.57;;;17.10;59.10;;;;;;5119077;27;20487;-80
2021/06/02 01:07:52;;;;;;;18.40;13.30;;;17.10;59.10;;;;;;5117349;28;20050;-81
2021/06/02 01:10:19;;;;;;;17.83;12.43;;;17.00;59.10;;;;;;5098702;27;20055;-81
2021/06/02 01:12:49;;;;;;;19.13;13.10;;;17.00;59.30;;;;;;5099043;28;20051;-81
2021/06/02 01:15:17;;;;;;;15.98;12.75;;;17.00;59.40;;;;;;5081942;28;20467;-79
2021/06/02 01:17:43;;;;;;;18.30;13.65;;;16.90;59.40;;;;;;5116544;28;20035;-80
2021/06/02 01:20:09;;;;;;;20.17;14.52;;;16.90;59.60;;;;;;5098099;28;20367;-81
2021/06/02 01:22:39;;;;;;;18.15;14.00;;;16.90;59.70;;;;;;5116577;28;20130;-81
2021/06/02 01:25:13;;;;;;;17.23;12.88;;;16.80;59.80;;;;;;5099852;28;20036;-80
2021/06/02 01:27:39;;;;;;;18.58;13.27;;;16.80;59.90;;;;;;5099282;28;20088;-79
2021/06/02 01:30:18;;;;;;;19.42;13.90;;;16.80;59.90;;;;;;5115633;28;20067;-81
2021/06/02 01:33:23;;;;;;;17.58;12.52;;;16.80;60.00;;;;;;5099966;28;20047;-80
2021/06/02 01:36:04;;;;;;;17.05;12.02;;;16.70;60.00;;;;;;5102002;28;20039;-80
2021/06/02 01:39:07;;;;;;;16.85;12.88;;;16.60;60.00;;;;;;5133426;28;20039;-81
2021/06/02 01:41:56;;;;;;;21.42;14.23;;;16.60;60.10;;;;;;5134739;28;20092;-80
2021/06/02 01:44:41;;;;;;;17.02;12.98;;;16.60;60.10;;;;;;5116586;28;20043;-81
2021/06/02 01:47:34;;;;;;;16.85;12.15;;;16.50;60.20;;;;;;5132655;28;20050;-82
2021/06/02 01:50:54;;;;;;;16.02;11.75;;;16.50;60.20;;;;;;5115561;28;20046;-80
2021/06/02 01:53:36;;;;;;;18.95;13.63;;;16.40;60.20;;;;;;5053260;28;20059;-79
2021/06/02 01:56:33;;;;;;;16.42;12.82;;;16.40;60.40;;;;;;5132603;28;20507;-81
2021/06/02 01:59:02;;;;;;;16.20;12.73;;;16.40;60.40;;;;;;5133040;28;20070;-80
2021/06/02 02:01:55;;;;;;;15.02;12.50;;;16.30;60.50;;;;;;5139672;27;20042;-78
2021/06/02 02:04:53;;;;;;;16.60;11.82;;;16.30;60.50;;;;;;5118693;27;20042;-79
2021/06/02 02:07:40;;;;;;;20.20;13.30;;;16.30;60.70;;;;;;5104594;27;20054;-81
2021/06/02 02:10:34;;;;;;;17.70;11.98;;;16.20;60.60;;;;;;5119563;27;20402;-82
2021/06/02 02:13:02;;;;;;;18.15;12.77;;;16.20;60.60;;;;;;5140414;27;20067;-80
2021/06/02 02:15:53;;;;;;;17.25;13.02;;;16.10;60.70;;;;;;5130834;28;20126;-80
2021/06/02 02:18:30;;;;;;;18.17;12.38;;;16.10;60.80;;;;;;5115136;28;20499;-81
2021/06/02 02:21:16;;;;;;;18.98;13.43;;;16.10;60.90;;;;;;5099519;28;20032;-80
2021/06/02 02:23:56;;;;;;;18.15;12.93;;;16.00;61.70;;;;;;5116572;28;20066;-81
2021/06/02 02:26:37;;;;;;;16.73;12.65;;;16.00;61.00;;;;;;5066206;28;20131;-80
2021/06/02 02:29:29;;;;;;;17.67;13.52;;;15.90;61.00;;;;;;5141240;27;20057;-80
2021/06/02 02:32:07;;;;;;;16.85;12.73;;;15.90;61.10;;;;;;5122597;27;20039;-80
2021/06/02 02:35:21;;;;;;;16.42;11.75;;;15.90;61.20;;;;;;5141116;27;20117;-80
2021/06/02 02:38:09;;;;;;;19.92;13.40;;;15.80;61.20;;;;;;5098600;27;20039;-81
2021/06/02 02:40:56;;;;;;;17.13;11.95;;;15.80;61.40;;;;;;5140739;27;20035;-81
2021/06/02 02:43:43;;;;;;;16.23;12.05;;;15.70;61.40;;;;;;5106297;27;20395;-80
2021/06/02 02:46:31;;;;;;;17.90;12.77;;;15.70;61.40;;;;;;5140409;27;20062;-80
2021/06/02 02:49:24;;;;;;;19.33;12.43;;;15.70;61.50;;;;;;5119267;27;20055;-80
2021/06/02 02:52:08;;;;;;;17.90;12.73;;;15.70;61.70;;;;;;5139868;27;20042;-80
2021/06/02 02:55:01;;;;;;;18.63;13.68;;;15.60;61.70;;;;;;5140985;27;20042;-80
2021/06/02 02:57:30;;;;;;;17.50;13.60;;;15.60;61.80;;;;;;5108039;27;20421;-80
2021/06/02 02:59:58;;;;;;;17.27;13.43;;;15.50;61.80;;;;;;5123892;27;20109;-79
2021/06/02 03:02:43;;;;;;;16.90;13.30;;;15.50;62.00;;;;;;5123112;27;20404;-79
2021/06/02 03:05:12;;;;;;;17.15;12.82;;;15.50;62.00;;;;;;5141015;27;20083;-79
2021/06/02 03:07:40;;;;;;;16.77;13.13;;;15.50;62.20;;;;;;5106786;27;20058;-79
2021/06/02 03:10:08;;;;;;;18.08;12.80;;;15.40;62.20;;;;;;5107195;27;20058;-79
2021/06/02 03:12:51;;;;;;;16.30;12.88;;;15.40;62.30;;;;;;5140314;27;20050;-79
2021/06/02 03:15:23;;;;;;;15.85;12.82;;;15.40;62.40;;;;;;5140485;27;20031;-82
2021/06/02 03:17:54;;;;;;;16.10;13.60;;;15.40;62.50;;;;;;5103911;27;20083;-80
2021/06/02 03:20:29;;;;;;;19.53;14.33;;;15.40;62.60;;;;;;5118496;27;20035;-79
2021/06/02 03:23:10;;;;;;;19.50;13.05;;;15.40;62.70;;;;;;5117980;27;20038;-79
2021/06/02 03:25:47;;;;;;;18.00;12.50;;;15.30;62.80;;;;;;5115872;27;20042;-80
2021/06/02 03:28:30;;;;;;;19.95;13.02;;;15.30;62.90;;;;;;5132994;27;20122;-79
2021/06/02 03:31:00;;;;;;;;;;;15.20;62.90;;;;;;5102452;27;20062;-79
2021/06/02 03:33:53;;;;;;;17.27;13.02;;;15.20;62.90;;;;;;5137692;27;19919;-78
2021/06/02 03:36:45;;;;;;;19.70;13.67;;;15.20;62.90;;;;;;5090133;27;20047;-83
2021/06/02 03:39:26;;;;;;;17.63;12.90;;;15.20;63.10;;;;;;5118562;27;20509;-79
2021/06/02 03:42:11;;;;;;;19.58;12.98;;;15.20;63.10;;;;;;5118592;27;20057;-79
2021/06/02 03:45:14;;;;;;;17.50;12.90;;;15.10;63.10;;;;;;5145608;27;20039;-79
2021/06/02 03:48:04;;;;;;;21.50;13.48;;;15.10;63.20;;;;;;5133356;27;20024;-78
2021/06/02 03:51:01;;;;;;;18.95;13.73;;;15.10;63.20;;;;;;5133714;27;20126;-79
2021/06/02 03:53:36;;;;;;;17.70;13.23;;;15.10;63.20;;;;;;5125591;27;20117;-80
2021/06/02 03:56:33;;;;;;;17.40;11.90;;;15.10;63.20;;;;;;5132020;27;20060;-79
2021/06/02 03:59:06;;;;;;;17.58;12.93;;;15.10;63.30;;;;;;5155879;27;20058;-79
2021/06/02 04:01:51;;;;;;;15.48;12.60;;;15.10;63.30;;;;;;5097924;27;20130;-79
2021/06/02 04:04:20;;;;;;;17.15;12.45;;;15.00;63.30;;;;;;5102237;28;20059;-77
2021/06/02 04:07:04;;;;;;;17.35;12.95;;;15.10;63.30;;;;;;5129900;27;20551;-80
2021/06/02 04:10:05;;;;;;;14.77;11.77;;;15.00;63.40;;;;;;5118728;28;20518;-80
2021/06/02 04:12:34;;;;;;;18.00;12.63;;;15.00;63.40;;;;;;5090620;28;20054;-80
2021/06/02 04:15:02;;;;;;;18.58;11.90;;;15.00;63.40;;;;;;5118376;28;20044;-80
2021/06/02 04:17:28;;;;;;;17.70;12.00;;;15.10;63.40;;;;;;5100233;28;20374;-81
2021/06/02 04:19:54;;;;;;;15.77;12.20;;;15.00;63.40;;;;;;5117865;28;20055;-79
2021/06/02 04:22:22;;;;;;;16.08;11.80;;;15.00;63.40;;;;;;5085133;28;20039;-78
2021/06/02 04:24:48;;;;;;;14.40;11.02;;;15.10;63.50;;;;;;5110840;28;20047;-77
2021/06/02 04:27:15;;;;;;;16.77;12.75;;;15.10;63.50;;;;;;5101449;28;20040;-78
2021/06/02 04:29:44;;;;;;;15.70;12.00;;;15.10;63.60;;;;;;5118835;27;20039;-78
2021/06/02 04:32:10;;;;;;;16.30;11.85;;;15.10;63.60;;;;;;5102877;27;20467;-79
2021/06/02 04:34:36;;;;;;;15.23;11.05;;;15.10;63.60;;;;;;5084188;28;20119;-80
2021/06/02 04:37:04;;;;;;;15.38;11.48;;;15.10;63.60;;;;;;5105715;28;20042;-81
2021/06/02 04:39:30;;;;;;;17.30;11.85;;;15.10;63.60;;;;;;5100519;28;20052;-80
2021/06/02 04:41:57;;;;;;;16.50;12.73;;;15.10;63.60;;;;;;5116093;27;20099;-80
2021/06/02 04:44:24;;;;;;;16.38;12.23;;;15.20;63.60;;;;;;5092092;28;20051;-79
2021/06/02 04:46:52;;;;;;;15.73;11.57;;;15.20;63.60;;;;;;5094121;27;20172;-79
2021/06/02 04:49:19;;;;;;;15.48;11.25;;;15.20;63.60;;;;;;5094170;27;20066;-79
2021/06/02 04:52:00;;;;;;;17.50;11.68;;;15.20;63.50;;;;;;5081474;28;20059;-79
2021/06/02 04:55:00;;;;;;;15.50;11.25;;;15.20;63.50;;;;;;5117346;28;20051;-81
2021/06/02 04:57:56;;;;;;;15.13;10.77;;;15.30;63.60;;;;;;5092947;28;20055;-78
2021/06/02 05:00:44;;;;;;;13.38;10.60;;;15.30;63.20;;;;;;5116979;28;20047;-79
2021/06/02 05:03:28;;;;;;;15.13;11.30;;;15.30;63.40;;;;;;5138410;27;20131;-82
2021/06/02 05:06:07;;;;;;;15.20;10.48;;;15.30;63.40;;;;;;5109006;27;20058;-80
2021/06/02 05:09:01;;;;;;;14.93;11.25;;;15.40;63.00;;;;;;5141454;27;20047;-82
2021/06/02 05:11:45;;;;;;;14.65;10.43;;;15.50;63.20;;;;;;5142079;27;20068;-80
2021/06/02 05:14:32;;;;;;;15.43;11.13;;;15.50;63.00;;;;;;5133947;27;20039;-80
2021/06/02 05:17:13;;;;;;;14.85;10.68;;;15.50;63.00;;;;;;5133318;27;20035;-81
2021/06/02 05:20:02;;;;;;;12.88;9.57;;;15.60;62.90;;;;;;5147259;27;20031;-80
2021/06/02 05:23:00;;;;;;;16.20;9.40;;;15.60;63.00;;;;;;5137127;27;20046;-78
2021/06/02 05:25:54;;;;;;;14.40;10.05;;;15.60;62.80;;;;;;5083076;27;20134;-79
2021/06/02 05:28:48;;;;;;;14.15;9.85;;;15.70;63.10;;;;;;5140424;27;20041;-79
2021/06/02 05:31:36;;;;;;;18.17;10.90;;;15.70;63.00;;;;;;5155309;27;20070;-80
2021/06/02 05:34:22;;;;;;;12.85;9.55;;;15.80;63.20;;;;;;5155296;27;20043;-80
2021/06/02 05:37:03;;;;;;;13.68;9.57;;;15.80;63.00;;;;;;5130531;27;20404;-80
2021/06/02 05:40:00;;;;;;;17.10;10.00;;;15.80;63.20;;;;;;5115291;28;20038;-79
2021/06/02 05:42:41;;;;;;;14.63;9.73;;;15.90;63.30;;;;;;5118429;27;20077;-79
2021/06/02 05:45:42;;;;;;;13.98;9.10;;;16.00;63.20;;;;;;5106133;27;20106;-80
2021/06/02 05:48:26;;;;;;;14.95;9.15;;;16.00;63.00;;;;;;5099470;28;20047;-81
2021/06/02 05:51:30;;;;;;;11.55;8.27;;;16.10;63.00;;;;;;5123889;27;20047;-81
2021/06/02 05:54:25;;;;;;;12.57;8.70;;;16.20;62.60;;;;;;5133768;27;20043;-83
2021/06/02 05:57:05;;;;;;;11.68;8.45;;;16.30;62.50;;;;;;5118605;28;20170;-81
2021/06/02 06:00:09;;;;;;;14.52;8.57;;;16.40;62.40;;;;;;5097358;27;20055;-81
2021/06/02 06:03:12;;;;;;;12.05;8.32;;;16.50;62.30;;;;;;5136191;27;20047;-83
2021/06/02 06:06:03;;;;;;;10.43;8.15;;;16.60;62.30;;;;;;5117635;28;20041;-84
2021/06/02 06:08:33;;;;;;;12.43;7.50;;;16.70;62.00;;;;;;5105446;27;20042;-83
2021/06/02 06:11:36;;;;;;;11.45;8.30;;;16.80;61.70;;;;;;5125341;27;20065;-81
2021/06/02 06:14:22;;;;;;;12.90;7.15;;;16.80;62.00;;;;;;5131228;27;20121;-80
2021/06/02 06:17:13;;;;;;;12.25;7.28;;;17.00;61.70;;;;;;5116972;27;20098;-81
2021/06/02 06:20:10;;;;;;;14.63;6.88;;;17.00;61.30;;;;;;5134376;27;20485;-84
2021/06/02 06:22:44;;;;;;;14.25;7.88;;;17.30;61.70;;;;;;5121710;27;20050;-87
2021/06/02 06:25:40;;;;;;;13.88;6.75;;;17.40;61.20;;;;;;5119272;27;20032;-82
2021/06/02 06:28:31;;;;;;;11.80;7.00;;;17.40;60.90;;;;;;5098057;27;20146;-81
2021/06/02 06:30:57;;;;;;;8.65;6.80;;;17.50;60.60;;;;;;5073495;27;20058;-81
2021/06/02 06:33:23;;;;;;;10.07;6.68;;;17.50;60.30;;;;;;5086183;27;20471;-81
2021/06/02 06:35:48;;;;;;;8.27;6.15;;;17.50;60.00;;;;;;5086936;27;20123;-82
2021/06/02 06:38:26;;;;;;;13.35;7.88;;;17.50;59.60;;;;;;5086768;27;20038;-81
2021/06/02 06:40:55;;;;;;;12.85;7.03;;;17.50;59.00;;;;;;5099719;27;20061;-82
2021/06/02 06:43:21;;;;;;;9.48;6.72;;;17.60;59.10;;;;;;5099516;27;20059;-82
2021/06/02 06:45:47;;;;;;;9.60;7.40;;;17.60;59.00;;;;;;5098799;27;20047;-83
2021/06/02 06:48:16;;;;;;;10.30;7.03;;;17.60;58.80;;;;;;5082468;27;20092;-82
2021/06/02 06:50:45;;;;;;;11.00;7.75;;;17.60;58.70;;;;;;5099900;27;20118;-81
2021/06/02 06:53:12;;;;;;;10.55;6.40;;;17.60;58.60;;;;;;5081974;27;20198;-83
2021/06/02 06:55:38;;;;;;;10.18;7.55;;;17.60;58.60;;;;;;5082696;27;20131;-83
2021/06/02 06:58:04;;;;;;;11.30;7.47;;;17.60;58.30;;;;;;5081240;27;20553;-82
2021/06/02 07:00:32;;;;;;;14.38;7.70;;;17.60;58.20;;;;;;5082434;27;20043;-81
2021/06/02 07:02:58;;;;;;;10.82;7.55;;;17.70;58.00;;;;;;5078131;28;20059;-82
2021/06/02 07:05:24;;;;;;;10.25;7.63;;;17.70;57.80;;;;;;5062320;28;20376;-82
2021/06/02 07:07:53;;;;;;;10.68;7.25;;;17.70;57.50;;;;;;5095479;28;20097;-82
2021/06/02 07:10:20;;;;;;;11.43;7.97;;;17.70;57.30;;;;;;5095589;28;20437;-81
2021/06/02 07:12:49;;;;;;;11.68;6.82;;;17.70;57.20;;;;;;5079196;28;20055;-83
2021/06/02 07:15:19;;;;;;;11.40;7.80;;;17.80;57.30;;;;;;5079589;28;20035;-82
2021/06/02 07:17:46;;;;;;;12.75;7.57;;;17.80;57.40;;;;;;5078448;28;20066;-83
2021/06/02 07:20:14;;;;;;;11.35;8.20;;;17.80;57.50;;;;;;5077654;28;20101;-80
2021/06/02 07:22:46;;;;;;;9.52;7.40;;;17.80;57.70;;;;;;5078949;28;20093;-81
2021/06/02 07:25:28;;;;;;;11.63;8.73;;;17.90;57.70;;;;;;5078167;28;20212;-82
2021/06/02 07:27:56;;;;;;;12.18;8.02;;;17.90;57.60;;;;;;5111247;28;20035;-81
2021/06/02 07:30:25;;;;;;;11.43;8.10;;;18.00;57.60;;;;;;5078586;28;20043;-81
2021/06/02 07:32:51;;;;;;;11.10;8.32;;;18.00;57.50;;;;;;5078819;28;20501;-83
2021/06/02 07:35:17;;;;;;;13.38;8.10;;;18.00;57.60;;;;;;5111312;28;20123;-81
2021/06/02 07:37:42;;;;;;;10.80;8.55;;;18.10;57.80;;;;;;5094876;28;20416;-80
2021/06/02 07:40:09;;;;;;;11.82;8.50;;;18.10;57.90;;;;;;5077258;28;20441;-82
2021/06/02 07:42:35;;;;;;;14.32;9.00;;;18.10;58.00;;;;;;5078276;28;20135;-82
2021/06/02 07:45:01;;;;;;;13.05;8.32;;;18.10;57.90;;;;;;5077318;28;20079;-82
2021/06/02 07:47:30;;;;;;;11.10;8.15;;;18.20;57.90;;;;;;5077986;28;20040;-81
2021/06/02 07:49:56;;;;;;;10.18;7.75;;;18.20;57.80;;;;;;5093663;28;20039;-82
2021/06/02 07:52:24;;;;;;;12.05;7.70;;;18.20;57.70;;;;;;5094712;28;20458;-82
2021/06/02 07:54:50;;;;;;;12.35;7.65;;;18.20;57.40;;;;;;5078128;28;20124;-83
2021/06/02 07:57:16;;;;;;;11.27;7.82;;;18.30;57.30;;;;;;5093801;28;20471;-82
2021/06/02 07:59:51;;;;;;;9.75;7.68;;;18.30;57.20;;;;;;5094720;28;20065;-80
2021/06/02 08:02:17;;;;;;;13.13;9.13;;;18.30;57.10;;;;;;5094142;28;20174;-81
2021/06/02 08:04:43;;;;;;;14.70;9.02;;;18.30;57.00;;;;;;5094620;28;20477;-81
2021/06/02 08:07:09;;;;;;;13.73;8.52;;;18.30;56.90;;;;;;5076551;28;20043;-81
2021/06/02 08:09:35;;;;;;;13.13;8.13;;;18.30;56.80;;;;;;5077080;28;20055;-82
2021/06/02 08:12:05;;;;;;;15.73;8.98;;;18.30;56.70;;;;;;5076538;28;20381;-81
2021/06/02 08:14:33;;;;;;;16.80;8.73;;;18.30;56.60;;;;;;5078267;28;20075;-81
2021/06/02 08:16:59;;;;;;;13.50;7.68;;;18.30;56.60;;;;;;5093824;28;20065;-85
2021/06/02 08:19:25;;;;;;;12.98;7.60;;;18.40;56.60;;;;;;5061490;28;20044;-82
2021/06/02 08:21:51;;;;;;;13.52;8.20;;;18.40;56.40;;;;;;5060941;28;20067;-81
2021/06/02 08:24:17;;;;;;;10.68;7.40;;;18.40;56.10;;;;;;5093384;28;20134;-81
2021/06/02 08:26:45;;;;;;;13.23;7.60;;;18.50;56.00;;;;;;5094387;28;20134;-81
2021/06/02 08:29:11;;;;;;;10.70;7.30;;;18.50;55.80;;;;;;5093305;28;20058;-82
2021/06/02 08:31:37;;;;;;;10.18;7.22;;;18.50;55.70;;;;;;5093926;28;20044;-81
2021/06/02 08:34:03;;;;;;;9.50;6.95;;;18.60;55.50;;;;;;5093174;28;20468;-82
2021/06/02 08:36:29;;;;;;;9.32;6.63;;;18.60;55.20;;;;;;5077188;28;20048;-82
2021/06/02 08:38:55;;;;;;;10.60;7.10;;;18.70;55.30;;;;;;5110672;28;20035;-82
2021/06/02 08:41:21;;;;;;;10.13;7.30;;;18.70;55.20;;;;;;5076005;28;20065;-81
2021/06/02 08:43:47;;;;;;;8.45;6.13;;;18.80;55.10;;;;;;5093902;28;20466;-82
2021/06/02 08:46:17;;;;;;;10.25;6.53;;;18.90;55.00;;;;;;5077125;28;20096;-83
2021/06/02 08:48:49;;;;;;;9.00;5.95;;;18.90;54.70;;;;;;5076728;28;20083;-82
2021/06/02 08:51:22;;;;;;;10.02;6.60;;;19.00;54.40;;;;;;5092982;28;20054;-82
2021/06/02 08:53:49;;;;;;;9.52;6.50;;;19.10;54.30;;;;;;5078012;28;20052;-81
2021/06/02 08:56:15;;;;;;;13.93;7.13;;;19.20;54.50;;;;;;5093030;28;20043;-82
2021/06/02 08:58:41;;;;;;;9.77;6.20;;;19.30;54.30;;;;;;5093482;28;20063;-81
2021/06/02 09:01:14;;;;;;;9.45;6.93;;;19.40;54.10;;;;;;5092912;28;20046;-80
2021/06/02 09:03:42;;;;;;;12.73;7.38;;;19.50;54.00;;;;;;5077622;28;20066;-83
2021/06/02 09:06:08;;;;;;;10.15;6.47;;;19.70;54.00;;;;;;5076361;28;20509;-81
2021/06/02 09:08:34;;;;;;;10.38;6.47;;;19.80;53.80;;;;;;5093254;28;20036;-81
2021/06/02 09:11:17;;;;;;;12.32;6.55;;;20.00;54.40;;;;;;5076508;28;20491;-84
2021/06/02 09:13:46;;;;;;;10.10;6.70;;;20.10;53.40;;;;;;5094687;28;20065;-83
2021/06/02 09:16:22;;;;;;;13.13;7.03;;;20.30;53.60;;;;;;5092414;28;20476;-84
2021/06/02 09:19:08;;;;;;;10.57;6.90;;;20.40;53.00;;;;;;5110240;28;20058;-82
2021/06/02 09:21:37;;;;;;;12.18;6.80;;;20.60;52.60;;;;;;5076084;28;20349;-81
2021/06/02 09:24:03;;;;;;;11.35;6.25;;;20.70;52.60;;;;;;5060380;28;20044;-83
2021/06/02 09:26:32;;;;;;;9.68;6.07;;;20.90;52.50;;;;;;5092596;28;20077;-80
2021/06/02 09:28:59;;;;;;;10.90;5.80;;;21.00;52.50;;;;;;5077389;28;20051;-81
2021/06/02 09:31:32;;;;;;;11.90;9.30;;;21.20;52.10;;;;;;5075835;28;20054;-82
2021/06/02 09:34:17;;;;;;;9.20;8.20;;;21.40;52.20;;;;;;5110007;28;20135;-81
2021/06/02 09:36:44;;;;;;;8.75;6.68;;;21.60;52.20;;;;;;5078970;28;20065;-81
2021/06/02 09:39:15;;;;;;;9.68;6.45;;;21.80;51.90;;;;;;5075425;28;20437;-83
2021/06/02 09:41:47;;;;;;;9.10;6.50;;;22.00;51.60;;;;;;5094570;28;20036;-82
2021/06/02 09:44:37;;;;;;;10.27;5.82;;;22.20;51.70;;;;;;5097063;28;20044;-83
2021/06/02 09:47:09;;;;;;;8.75;5.65;;;22.40;52.00;;;;;;5114373;28;20044;-82
2021/06/02 09:49:52;;;;;;;9.88;6.25;;;22.70;51.80;;;;;;5113997;28;20171;-82
2021/06/02 09:52:19;;;;;;;10.13;6.00;;;23.00;51.60;;;;;;5096557;28;20047;-82
2021/06/02 09:54:45;;;;;;;9.32;6.10;;;23.10;51.40;;;;;;5097202;28;20074;-82
2021/06/02 09:57:12;;;;;;;8.77;5.50;;;23.30;51.00;;;;;;5113242;28;20043;-82
2021/06/02 09:59:58;;;;;;;11.50;5.85;;;23.50;50.80;;;;;;5097027;28;20051;-82
2021/06/02 10:02:25;;;;;;;9.48;4.95;;;23.70;50.70;;;;;;5079786;28;20435;-81
2021/06/02 10:05:01;;;;;;;7.13;5.60;;;23.90;50.40;;;;;;5097438;28;20036;-82
2021/06/02 10:07:27;;;;;;;9.65;5.53;;;24.00;50.00;;;;;;5062999;28;20051;-84
2021/06/02 10:09:53;;;;;;;9.88;5.82;;;24.10;49.70;;;;;;5096802;28;20054;-81
2021/06/02 10:12:19;;;;;;;7.68;5.22;;;24.30;49.70;;;;;;5096460;28;20046;-83
2021/06/02 10:14:55;;;;;;;11.35;5.47;;;24.40;49.50;;;;;;5113658;28;20503;-84
2021/06/02 10:17:37;;;;;;;7.55;6.13;;;24.60;49.00;;;;;;5079182;28;20056;-83
2021/06/02 10:20:14;;;;;;;8.80;6.20;;;24.70;48.70;;;;;;5096895;28;20039;-81
2021/06/02 10:22:40;;;;;;;10.75;5.32;;;24.90;48.50;;;;;;5097494;28;20039;-83
2021/06/02 10:25:07;;;;;;;9.88;6.18;;;25.10;48.30;;;;;;5096461;28;20149;-82
2021/06/02 10:27:33;;;;;;;8.10;6.03;;;25.20;48.20;;;;;;5095557;28;20125;-82
2021/06/02 10:29:59;;;;;;;8.98;5.88;;;25.40;47.90;;;;;;5080112;28;20530;-82
2021/06/02 10:32:27;;;;;;;7.18;5.72;;;25.50;47.70;;;;;;5078978;28;20045;-83
2021/06/02 10:34:54;;;;;;;7.82;6.25;;;25.60;47.40;;;;;;5095934;28;20035;-77
2021/06/02 10:37:23;;;;;;;10.30;7.15;;;25.70;47.40;;;;;;5104764;27;20050;-81
2021/06/02 10:39:52;;;;;;;9.15;6.55;;;25.80;45.20;;;;;;5125220;27;20061;-81
2021/06/02 10:42:21;;;;;;;12.93;7.85;;;25.80;44.40;;;;;;5095933;28;20036;-85
2021/06/02 10:44:54;;;;;;;12.73;7.65;;;25.90;44.30;;;;;;5078742;28;20052;-80
2021/06/02 10:47:26;;;;;;;14.85;7.00;;;26.00;43.40;;;;;;5076283;28;20476;-83
2021/06/02 10:49:53;;;;;;;7.97;6.82;;;26.00;43.00;;;;;;5086484;28;20039;-81
2021/06/02 10:52:54;;;;;;;8.40;6.88;;;26.10;43.60;;;;;;5103224;28;20040;-84
2021/06/02 10:55:42;;;;;;;10.98;7.22;;;26.30;42.30;;;;;;5031209;28;20142;-83
2021/06/02 10:58:47;;;;;;;11.25;6.97;;;26.40;41.90;;;;;;5102896;28;20176;-83
2021/06/02 11:01:17;;;;;;;8.93;7.35;;;26.50;41.30;;;;;;5021448;28;20119;-81
2021/06/02 11:03:45;;;;;;;8.38;6.82;;;26.70;41.80;;;;;;5021853;28;20053;-82
2021/06/02 11:06:14;;;;;;;9.68;7.50;;;26.80;41.10;;;;;;5044675;28;20070;-81
2021/06/02 11:08:52;;;;;;;8.13;7.20;;;26.90;40.80;;;;;;5095808;28;20107;-83
2021/06/02 11:11:30;;;;;;;13.05;7.57;;;27.10;40.30;;;;;;5108797;28;20055;-82
2021/06/02 11:14:15;;;;;;;9.43;7.93;;;27.20;40.00;;;;;;5073772;28;20065;-82
2021/06/02 11:16:57;;;;;;;18.02;8.30;;;27.30;39.80;;;;;;5121372;27;20188;-83
2021/06/02 11:19:35;;;;;;;9.15;7.07;;;27.50;39.50;;;;;;5088775;28;20549;-84
2021/06/02 11:22:03;;;;;;;10.70;7.55;;;27.60;39.80;;;;;;5070492;28;20043;-84
2021/06/02 11:24:36;;;;;;;9.88;7.43;;;27.70;39.50;;;;;;5071811;28;20047;-80
2021/06/02 11:27:20;;;;;;;12.50;7.15;;;27.90;39.20;;;;;;5093075;28;20040;-80
2021/06/02 11:29:52;;;;;;;10.35;7.50;;;28.10;39.10;;;;;;5112774;27;20480;-82
2021/06/02 11:32:24;;;;;;;12.45;8.48;;;28.20;38.80;;;;;;5103719;28;20153;-79
2021/06/02 11:35:05;;;;;;;9.63;7.53;;;28.30;38.60;;;;;;5092226;28;20048;-81
2021/06/02 11:37:33;;;;;;;11.77;8.02;;;28.40;38.10;;;;;;5073651;28;20500;-82
2021/06/02 11:40:03;;;;;;;11.00;7.60;;;28.60;37.80;;;;;;5067547;28;20048;-81
2021/06/02 11:42:40;;;;;;;10.05;8.30;;;28.70;37.70;;;;;;5073275;28;20120;-81
2021/06/02 11:45:07;;;;;;;9.55;8.00;;;28.70;37.30;;;;;;5091833;28;20081;-81
2021/06/02 11:47:33;;;;;;;8.38;7.50;;;28.60;37.40;;;;;;5093049;28;20043;-81
2021/06/02 11:50:25;;;;;;;11.05;7.28;;;28.60;37.20;;;;;;5076928;28;20479;-81
2021/06/02 11:52:58;;;;;;;10.18;7.53;;;28.70;37.80;;;;;;5088410;28;20128;-82
2021/06/02 11:55:24;;;;;;;11.15;7.68;;;28.90;37.90;;;;;;5055859;28;20056;-82
2021/06/02 11:57:55;;;;;;;11.75;7.53;;;29.10;38.00;;;;;;5078929;28;20040;-81
2021/06/02 12:00:26;;;;;;;11.10;8.35;;;29.40;38.00;;;;;;5057207;28;20115;-82
2021/06/02 12:02:56;;;;;;;12.43;9.00;;;29.70;38.00;;;;;;5044259;28;20079;-82
2021/06/02 12:05:23;;;;;;;9.27;7.57;;;29.90;37.70;;;;;;5055751;28;20058;-82
2021/06/02 12:07:52;;;;;;;10.50;8.00;;;30.20;37.40;;;;;;5088654;28;20234;-82
2021/06/02 12:10:18;;;;;;;8.73;7.75;;;30.50;37.00;;;;;;5090238;28;20487;-83
2021/06/02 12:12:44;;;;;;;8.52;7.65;;;30.80;36.90;;;;;;5072867;28;20044;-82
2021/06/02 12:15:11;;;;;;;11.95;8.43;;;31.00;36.10;;;;;;5057324;28;20040;-83
2021/06/02 12:17:37;;;;;;;8.43;7.63;;;31.20;35.30;;;;;;5056517;28;20051;-83
2021/06/02 12:20:10;;;;;;;10.27;7.82;;;31.50;35.00;;;;;;5090721;28;20389;-83
2021/06/02 12:22:35;;;;;;;9.93;7.53;;;31.70;35.00;;;;;;5072786;28;20498;-82
2021/06/02 12:25:18;;;;;;;9.40;7.28;;;32.00;34.90;;;;;;5090448;28;20044;-83
2021/06/02 12:27:45;;;;;;;8.90;7.65;;;32.20;34.40;;;;;;5073326;28;20044;-83
2021/06/02 12:30:37;;;;;;;8.85;6.70;;;32.40;33.80;;;;;;5057276;28;20438;-83
2021/06/02 12:33:06;;;;;;;;;;;32.60;33.40;;;;;;5074382;28;20085;-84
2021/06/02 12:35:41;;;;;;;8.60;7.10;;;32.80;33.90;;;;;;5089535;28;19924;-84
2021/06/02 12:38:15;;;;;;;8.05;7.15;;;32.90;33.30;;;;;;5073512;28;20044;-83
2021/06/02 12:40:45;;;;;;;8.18;6.60;;;33.10;32.60;;;;;;5088851;28;20135;-83
2021/06/02 12:43:38;;;;;;;8.13;7.00;;;33.30;32.40;;;;;;5056844;28;20118;-82
2021/06/02 12:46:10;;;;;;;10.07;7.82;;;33.50;32.50;;;;;;5090382;28;20040;-83
2021/06/02 12:48:36;;;;;;;8.85;7.28;;;33.60;32.10;;;;;;5056304;28;20048;-86
2021/06/02 12:51:03;;;;;;;11.77;8.10;;;33.80;32.00;;;;;;5091611;28;20104;-84
2021/06/02 12:53:36;;;;;;;9.73;7.93;;;33.80;31.60;;;;;;5073775;28;20048;-84
2021/06/02 12:56:02;;;;;;;9.18;7.88;;;33.90;30.80;;;;;;5057007;28;20048;-83
2021/06/02 12:58:31;;;;;;;13.35;7.93;;;34.00;30.80;;;;;;5085847;28;20586;-83
2021/06/02 13:01:06;;;;;;;9.60;7.90;;;34.00;30.60;;;;;;5072783;28;20075;-82
2021/06/02 13:03:32;;;;;;;9.80;7.65;;;34.10;30.50;;;;;;5105185;28;20301;-83
2021/06/02 13:06:02;;;;;;;9.18;8.25;;;34.20;30.50;;;;;;5109349;28;20051;-84
2021/06/02 13:08:43;;;;;;;9.30;8.40;;;34.30;30.30;;;;;;5110280;28;20192;-84
2021/06/02 13:11:12;;;;;;;8.57;7.73;;;34.30;29.70;;;;;;5076504;28;20454;-84
2021/06/02 13:13:40;;;;;;;9.07;7.22;;;34.40;29.70;;;;;;5093170;28;20300;-84
2021/06/02 13:16:06;;;;;;;11.32;8.27;;;34.50;29.50;;;;;;5109527;28;20039;-83